sensor_id;sensor_type;location;lat;lon;timestamp;P1;P2;P0
65680;PMS5003;61747;54.966;73.394;2022-10-26T00:01:26;0.00;0.00;0.00
65680;PMS5003;61747;54.966;73.394;2022-10-26T00:03:53;0.00;0.00;0.00
65680;PMS5003;61747;54.966;73.394;2022-10-26T00:06:20;0.00;0.00;0.00
65680;PMS5003;61747;54.966;73.394;2022-10-26T00:08:46;0.00;0.00;0.00
65680;PMS5003;61747;54.966;73.394;2022-10-26T00:11:12;0.00;0.00;0.00
65680;PMS5003;61747;54.966;73.394;2022-10-26T00:13:39;0.00;0.00;0.00
65680;PMS5003;61747;54.966;73.394;2022-10-26T00:16:10;0.00;0.00;0.00
65680;PMS5003;61747;54.966;73.394;2022-10-26T00:18:36;0.00;0.00;0.00
65680;PMS5003;61747;54.966;73.394;2022-10-26T00:21:11;0.00;0.00;0.00
65680;PMS5003;61747;54.966;73.394;2022-10-26T00:23:37;0.00;0.00;0.00
65680;PMS5003;61747;54.966;73.394;2022-10-26T00:26:05;0.00;0.00;0.00
65680;PMS5003;61747;54.966;73.394;2022-10-26T00:28:41;0.00;0.00;0.00
65680;PMS5003;61747;54.966;73.394;2022-10-26T00:31:16;0.00;0.00;0.00
65680;PMS5003;61747;54.966;73.394;2022-10-26T00:33:42;1.00;0.00;0.00
65680;PMS5003;61747;54.966;73.394;2022-10-26T00:36:08;0.00;0.00;0.00
65680;PMS5003;61747;54.966;73.394;2022-10-26T00:38:39;0.00;0.00;0.00
65680;PMS5003;61747;54.966;73.394;2022-10-26T00:41:13;0.00;0.00;0.00
65680;PMS5003;61747;54.966;73.394;2022-10-26T00:43:40;0.00;0.00;0.00
65680;PMS5003;61747;54.966;73.394;2022-10-26T00:46:14;0.00;0.00;0.00
65680;PMS5003;61747;54.966;73.394;2022-10-26T00:48:42;0.00;0.00;0.00
65680;PMS5003;61747;54.966;73.394;2022-10-26T00:51:51;0.00;0.00;0.00
65680;PMS5003;61747;54.966;73.394;2022-10-26T00:54:12;1.00;0.00;0.00
65680;PMS5003;61747;54.966;73.394;2022-10-26T00:56:39;0.00;0.00;0.00
65680;PMS5003;61747;54.966;73.394;2022-10-26T00:59:07;0.75;0.00;0.00
65680;PMS5003;61747;54.966;73.394;2022-10-26T01:01:43;0.00;0.00;0.00
65680;PMS5003;61747;54.966;73.394;2022-10-26T01:04:09;1.25;0.00;0.00
65680;PMS5003;61747;54.966;73.394;2022-10-26T01:06:36;0.00;0.00;0.00
65680;PMS5003;61747;54.966;73.394;2022-10-26T01:09:02;0.00;0.00;0.00
65680;PMS5003;61747;54.966;73.394;2022-10-26T01:11:28;0.00;0.00;0.00
65680;PMS5003;61747;54.966;73.394;2022-10-26T01:13:54;0.00;0.00;0.00
65680;PMS5003;61747;54.966;73.394;2022-10-26T01:21:53;0.00;0.00;0.00
65680;PMS5003;61747;54.966;73.394;2022-10-26T01:27:48;0.00;0.00;0.00
65680;PMS5003;61747;54.966;73.394;2022-10-26T01:32:15;1.00;0.00;0.00
65680;PMS5003;61747;54.966;73.394;2022-10-26T01:34:51;1.00;0.00;0.00
65680;PMS5003;61747;54.966;73.394;2022-10-26T01:37:27;0.00;0.00;0.00
65680;PMS5003;61747;54.966;73.394;2022-10-26T01:39:57;1.50;0.00;0.00
65680;PMS5003;61747;54.966;73.394;2022-10-26T01:42:29;0.50;0.00;0.00
65680;PMS5003;61747;54.966;73.394;2022-10-26T01:44:58;0.00;0.00;0.00
65680;PMS5003;61747;54.966;73.394;2022-10-26T01:47:25;0.00;0.00;0.00
65680;PMS5003;61747;54.966;73.394;2022-10-26T01:49:54;0.00;0.00;0.00
65680;PMS5003;61747;54.966;73.394;2022-10-26T01:52:25;0.00;0.00;0.00
65680;PMS5003;61747;54.966;73.394;2022-10-26T01:55:05;0.00;0.00;0.00
65680;PMS5003;61747;54.966;73.394;2022-10-26T01:57:33;0.00;0.00;0.00
65680;PMS5003;61747;54.966;73.394;2022-10-26T02:05:20;0.00;0.00;0.00
65680;PMS5003;61747;54.966;73.394;2022-10-26T02:18:29;0.00;0.00;0.00
65680;PMS5003;61747;54.966;73.394;2022-10-26T02:21:02;1.00;0.00;0.00
65680;PMS5003;61747;54.966;73.394;2022-10-26T02:23:28;0.00;0.00;0.00
65680;PMS5003;61747;54.966;73.394;2022-10-26T02:25:55;0.00;0.00;0.00
65680;PMS5003;61747;54.966;73.394;2022-10-26T02:28:34;2.00;0.00;0.00
65680;PMS5003;61747;54.966;73.394;2022-10-26T02:31:01;2.00;0.50;0.00
65680;PMS5003;61747;54.966;73.394;2022-10-26T02:33:29;2.00;2.00;0.00
65680;PMS5003;61747;54.966;73.394;2022-10-26T02:35:56;0.00;0.00;0.00
65680;PMS5003;61747;54.966;73.394;2022-10-26T02:38:33;0.00;0.00;0.00
65680;PMS5003;61747;54.966;73.394;2022-10-26T02:41:00;1.00;0.00;0.00
65680;PMS5003;61747;54.966;73.394;2022-10-26T02:43:27;1.00;0.00;0.00
65680;PMS5003;61747;54.966;73.394;2022-10-26T02:45:59;0.00;0.00;0.00
65680;PMS5003;61747;54.966;73.394;2022-10-26T02:48:31;0.00;0.00;0.00
65680;PMS5003;61747;54.966;73.394;2022-10-26T02:51:02;1.00;0.00;0.00
65680;PMS5003;61747;54.966;73.394;2022-10-26T02:53:34;0.00;0.00;0.00
65680;PMS5003;61747;54.966;73.394;2022-10-26T02:56:02;1.00;0.00;0.00
65680;PMS5003;61747;54.966;73.394;2022-10-26T02:58:33;0.00;0.00;0.00
65680;PMS5003;61747;54.966;73.394;2022-10-26T03:01:07;0.00;0.00;0.00
65680;PMS5003;61747;54.966;73.394;2022-10-26T03:03:33;1.25;1.00;0.00
65680;PMS5003;61747;54.966;73.394;2022-10-26T03:05:58;2.00;2.00;0.00
65680;PMS5003;61747;54.966;73.394;2022-10-26T03:08:24;2.00;1.50;0.00
65680;PMS5003;61747;54.966;73.394;2022-10-26T03:10:50;1.00;0.00;0.00
65680;PMS5003;61747;54.966;73.394;2022-10-26T03:13:15;1.00;0.33;0.00
65680;PMS5003;61747;54.966;73.394;2022-10-26T03:15:41;0.00;0.00;0.00
65680;PMS5003;61747;54.966;73.394;2022-10-26T03:18:07;0.00;0.00;0.00
65680;PMS5003;61747;54.966;73.394;2022-10-26T03:20:33;2.00;1.00;0.00
65680;PMS5003;61747;54.966;73.394;2022-10-26T03:22:59;2.00;2.00;0.00
65680;PMS5003;61747;54.966;73.394;2022-10-26T03:25:29;2.00;2.00;0.00
65680;PMS5003;61747;54.966;73.394;2022-10-26T03:28:04;1.50;1.00;0.00
65680;PMS5003;61747;54.966;73.394;2022-10-26T03:30:30;2.00;1.00;0.00
65680;PMS5003;61747;54.966;73.394;2022-10-26T03:32:56;2.00;2.00;0.00
65680;PMS5003;61747;54.966;73.394;2022-10-26T03:35:22;4.00;3.75;0.00
65680;PMS5003;61747;54.966;73.394;2022-10-26T03:37:53;2.75;2.00;0.00
65680;PMS5003;61747;54.966;73.394;2022-10-26T03:40:19;3.00;2.00;0.00
65680;PMS5003;61747;54.966;73.394;2022-10-26T03:42:44;2.00;1.00;0.00
65680;PMS5003;61747;54.966;73.394;2022-10-26T03:45:10;2.00;2.00;0.00
65680;PMS5003;61747;54.966;73.394;2022-10-26T03:47:41;2.25;2.00;0.00
65680;PMS5003;61747;54.966;73.394;2022-10-26T03:50:06;2.00;2.00;0.00
65680;PMS5003;61747;54.966;73.394;2022-10-26T03:52:32;2.00;2.00;0.00
65680;PMS5003;61747;54.966;73.394;2022-10-26T03:54:58;2.00;2.00;0.00
65680;PMS5003;61747;54.966;73.394;2022-10-26T03:57:29;2.75;2.00;0.00
65680;PMS5003;61747;54.966;73.394;2022-10-26T03:59:55;2.00;2.00;0.00
65680;PMS5003;61747;54.966;73.394;2022-10-26T04:02:21;2.00;2.00;0.00
65680;PMS5003;61747;54.966;73.394;2022-10-26T04:04:52;2.75;2.00;0.00
65680;PMS5003;61747;54.966;73.394;2022-10-26T04:07:17;2.00;2.00;0.00
65680;PMS5003;61747;54.966;73.394;2022-10-26T04:09:43;1.25;0.00;0.00
65680;PMS5003;61747;54.966;73.394;2022-10-26T04:12:14;2.00;0.00;0.00
65680;PMS5003;61747;54.966;73.394;2022-10-26T04:14:39;2.67;2.00;0.00
65680;PMS5003;61747;54.966;73.394;2022-10-26T04:17:05;4.00;2.00;0.00
65680;PMS5003;61747;54.966;73.394;2022-10-26T04:19:31;2.00;2.00;0.00
65680;PMS5003;61747;54.966;73.394;2022-10-26T04:21:56;2.67;2.00;0.00
65680;PMS5003;61747;54.966;73.394;2022-10-26T04:24:22;2.00;1.00;0.00
65680;PMS5003;61747;54.966;73.394;2022-10-26T04:26:47;1.67;1.00;0.00
65680;PMS5003;61747;54.966;73.394;2022-10-26T04:29:13;0.00;0.00;0.00
65680;PMS5003;61747;54.966;73.394;2022-10-26T04:31:39;2.00;1.00;0.00
65680;PMS5003;61747;54.966;73.394;2022-10-26T04:34:06;2.00;2.00;0.00
65680;PMS5003;61747;54.966;73.394;2022-10-26T04:36:31;1.00;1.00;0.00
65680;PMS5003;61747;54.966;73.394;2022-10-26T04:38:58;2.00;1.00;0.00
65680;PMS5003;61747;54.966;73.394;2022-10-26T04:41:24;3.50;3.25;0.00
65680;PMS5003;61747;54.966;73.394;2022-10-26T04:43:50;4.00;3.00;0.00
65680;PMS5003;61747;54.966;73.394;2022-10-26T04:46:15;2.00;1.33;0.00
65680;PMS5003;61747;54.966;73.394;2022-10-26T04:48:41;1.00;1.00;0.00
65680;PMS5003;61747;54.966;73.394;2022-10-26T04:51:07;2.00;1.00;0.00
65680;PMS5003;61747;54.966;73.394;2022-10-26T04:53:33;4.00;2.25;0.00
65680;PMS5003;61747;54.966;73.394;2022-10-26T04:55:59;2.50;2.25;1.00
65680;PMS5003;61747;54.966;73.394;2022-10-26T04:58:34;3.75;2.00;0.50
65680;PMS5003;61747;54.966;73.394;2022-10-26T05:01:00;2.00;2.00;0.00
65680;PMS5003;61747;54.966;73.394;2022-10-26T05:03:27;2.00;2.00;0.00
65680;PMS5003;61747;54.966;73.394;2022-10-26T05:05:57;2.75;2.00;0.00
65680;PMS5003;61747;54.966;73.394;2022-10-26T05:08:23;3.00;2.00;0.00
65680;PMS5003;61747;54.966;73.394;2022-10-26T05:10:49;4.33;3.67;0.00
65680;PMS5003;61747;54.966;73.394;2022-10-26T05:13:15;4.00;2.00;1.00
65680;PMS5003;61747;54.966;73.394;2022-10-26T05:15:46;5.00;3.00;1.00
65680;PMS5003;61747;54.966;73.394;2022-10-26T05:18:11;3.00;2.00;0.00
65680;PMS5003;61747;54.966;73.394;2022-10-26T05:20:37;4.00;4.00;0.00
65680;PMS5003;61747;54.966;73.394;2022-10-26T05:23:03;2.50;2.00;0.00
65680;PMS5003;61747;54.966;73.394;2022-10-26T05:25:30;5.00;2.00;0.00
65680;PMS5003;61747;54.966;73.394;2022-10-26T05:27:57;3.75;3.00;0.00
65680;PMS5003;61747;54.966;73.394;2022-10-26T05:30:23;2.00;1.00;0.00
65680;PMS5003;61747;54.966;73.394;2022-10-26T05:32:55;0.00;0.00;0.00
65680;PMS5003;61747;54.966;73.394;2022-10-26T05:35:25;0.00;0.00;0.00
65680;PMS5003;61747;54.966;73.394;2022-10-26T05:37:56;2.00;1.00;0.00
65680;PMS5003;61747;54.966;73.394;2022-10-26T05:40:22;2.00;1.00;0.00
65680;PMS5003;61747;54.966;73.394;2022-10-26T05:42:47;2.00;2.00;0.00
65680;PMS5003;61747;54.966;73.394;2022-10-26T05:45:15;2.00;2.00;0.00
65680;PMS5003;61747;54.966;73.394;2022-10-26T05:47:52;3.00;2.00;0.00
65680;PMS5003;61747;54.966;73.394;2022-10-26T05:50:18;3.25;2.00;0.00
65680;PMS5003;61747;54.966;73.394;2022-10-26T05:52:44;2.00;2.00;0.00
65680;PMS5003;61747;54.966;73.394;2022-10-26T05:55:12;4.00;3.00;0.00
65680;PMS5003;61747;54.966;73.394;2022-10-26T05:57:38;5.00;4.00;0.00
65680;PMS5003;61747;54.966;73.394;2022-10-26T06:00:11;5.00;4.75;1.50
65680;PMS5003;61747;54.966;73.394;2022-10-26T06:05:07;4.00;3.00;1.00
65680;PMS5003;61747;54.966;73.394;2022-10-26T06:07:35;4.00;4.00;1.25
65680;PMS5003;61747;54.966;73.394;2022-10-26T06:10:03;3.25;3.00;0.50
65680;PMS5003;61747;54.966;73.394;2022-10-26T06:12:34;3.75;3.00;0.00
65680;PMS5003;61747;54.966;73.394;2022-10-26T06:15:00;5.00;2.75;0.00
65680;PMS5003;61747;54.966;73.394;2022-10-26T06:17:30;4.67;2.67;0.00
65680;PMS5003;61747;54.966;73.394;2022-10-26T06:25:24;3.00;2.00;0.00
65680;PMS5003;61747;54.966;73.394;2022-10-26T06:30:30;5.00;3.00;0.00
65680;PMS5003;61747;54.966;73.394;2022-10-26T06:32:56;6.00;5.00;2.00
65680;PMS5003;61747;54.966;73.394;2022-10-26T06:37:53;5.00;3.00;1.00
65680;PMS5003;61747;54.966;73.394;2022-10-26T06:40:20;4.25;2.00;1.00
65680;PMS5003;61747;54.966;73.394;2022-10-26T06:42:46;4.00;3.00;0.00
65680;PMS5003;61747;54.966;73.394;2022-10-26T06:45:15;3.25;2.00;0.00
65680;PMS5003;61747;54.966;73.394;2022-10-26T06:47:59;4.50;2.00;0.00
65680;PMS5003;61747;54.966;73.394;2022-10-26T06:50:37;6.75;4.00;0.00
65680;PMS5003;61747;54.966;73.394;2022-10-26T06:53:05;3.00;2.00;0.00
65680;PMS5003;61747;54.966;73.394;2022-10-26T06:55:41;2.50;2.00;0.00
65680;PMS5003;61747;54.966;73.394;2022-10-26T06:58:14;5.00;4.00;0.00
65680;PMS5003;61747;54.966;73.394;2022-10-26T07:00:41;3.00;2.00;0.00
65680;PMS5003;61747;54.966;73.394;2022-10-26T07:03:07;5.00;3.00;1.00
65680;PMS5003;61747;54.966;73.394;2022-10-26T07:05:33;3.00;2.00;0.00
65680;PMS5003;61747;54.966;73.394;2022-10-26T07:07:58;3.00;2.00;0.00
65680;PMS5003;61747;54.966;73.394;2022-10-26T07:10:24;2.00;1.00;0.00
65680;PMS5003;61747;54.966;73.394;2022-10-26T07:12:50;2.00;0.00;0.00
65680;PMS5003;61747;54.966;73.394;2022-10-26T07:15:25;5.00;5.00;0.00
65680;PMS5003;61747;54.966;73.394;2022-10-26T07:17:50;3.50;3.00;1.00
65680;PMS5003;61747;54.966;73.394;2022-10-26T07:20:26;3.00;2.00;1.00
65680;PMS5003;61747;54.966;73.394;2022-10-26T07:22:52;2.00;2.00;0.00
65680;PMS5003;61747;54.966;73.394;2022-10-26T07:25:18;2.00;2.00;0.00
65680;PMS5003;61747;54.966;73.394;2022-10-26T07:27:44;3.75;3.50;0.00
65680;PMS5003;61747;54.966;73.394;2022-10-26T07:30:19;3.25;3.00;0.00
65680;PMS5003;61747;54.966;73.394;2022-10-26T07:32:45;5.00;4.00;0.00
65680;PMS5003;61747;54.966;73.394;2022-10-26T07:35:11;5.00;4.25;1.00
65680;PMS5003;61747;54.966;73.394;2022-10-26T07:37:48;2.50;2.00;0.00
65680;PMS5003;61747;54.966;73.394;2022-10-26T07:40:13;2.33;2.00;0.00
65680;PMS5003;61747;54.966;73.394;2022-10-26T07:42:39;4.00;2.00;0.00
65680;PMS5003;61747;54.966;73.394;2022-10-26T07:45:05;6.00;3.00;0.00
65680;PMS5003;61747;54.966;73.394;2022-10-26T07:47:30;5.00;2.00;0.00
65680;PMS5003;61747;54.966;73.394;2022-10-26T07:49:56;3.33;2.00;0.00
65680;PMS5003;61747;54.966;73.394;2022-10-26T07:52:22;3.67;2.00;0.00
65680;PMS5003;61747;54.966;73.394;2022-10-26T07:54:47;6.00;4.00;0.00
65680;PMS5003;61747;54.966;73.394;2022-10-26T07:57:14;2.67;2.00;0.00
65680;PMS5003;61747;54.966;73.394;2022-10-26T07:59:40;2.75;2.50;0.00
65680;PMS5003;61747;54.966;73.394;2022-10-26T08:02:07;3.67;2.00;0.00
65680;PMS5003;61747;54.966;73.394;2022-10-26T08:04:33;6.00;5.00;1.00
65680;PMS5003;61747;54.966;73.394;2022-10-26T08:06:59;3.00;2.00;0.33
65680;PMS5003;61747;54.966;73.394;2022-10-26T08:09:24;7.33;5.00;2.00
65680;PMS5003;61747;54.966;73.394;2022-10-26T08:11:50;8.00;7.00;2.00
65680;PMS5003;61747;54.966;73.394;2022-10-26T08:14:16;5.67;5.00;2.00
65680;PMS5003;61747;54.966;73.394;2022-10-26T08:16:41;5.33;3.00;1.00
65680;PMS5003;61747;54.966;73.394;2022-10-26T08:19:07;5.00;3.00;2.00
65680;PMS5003;61747;54.966;73.394;2022-10-26T08:21:33;5.00;3.00;2.00
65680;PMS5003;61747;54.966;73.394;2022-10-26T08:23:58;5.00;4.00;1.00
65680;PMS5003;61747;54.966;73.394;2022-10-26T08:26:29;7.00;2.25;0.00
65680;PMS5003;61747;54.966;73.394;2022-10-26T08:28:55;5.00;4.00;2.00
65680;PMS5003;61747;54.966;73.394;2022-10-26T08:31:23;5.00;4.00;2.00
65680;PMS5003;61747;54.966;73.394;2022-10-26T08:33:49;5.00;3.00;1.00
65680;PMS5003;61747;54.966;73.394;2022-10-26T08:36:23;3.25;3.00;1.25
65680;PMS5003;61747;54.966;73.394;2022-10-26T08:38:54;2.00;2.00;0.00
65680;PMS5003;61747;54.966;73.394;2022-10-26T08:41:23;4.00;2.00;0.00
65680;PMS5003;61747;54.966;73.394;2022-10-26T08:43:56;2.50;2.00;0.00
65680;PMS5003;61747;54.966;73.394;2022-10-26T08:46:24;2.00;2.00;0.00
65680;PMS5003;61747;54.966;73.394;2022-10-26T08:49:10;2.00;0.00;0.00
65680;PMS5003;61747;54.966;73.394;2022-10-26T08:51:39;3.00;1.00;0.00
65680;PMS5003;61747;54.966;73.394;2022-10-26T08:54:45;2.75;2.50;0.00
65680;PMS5003;61747;54.966;73.394;2022-10-26T08:57:16;2.00;2.00;0.00
65680;PMS5003;61747;54.966;73.394;2022-10-26T08:59:55;4.00;2.50;0.00
65680;PMS5003;61747;54.966;73.394;2022-10-26T09:02:22;1.25;1.00;0.00
65680;PMS5003;61747;54.966;73.394;2022-10-26T09:04:59;4.00;2.00;0.00
65680;PMS5003;61747;54.966;73.394;2022-10-26T09:17:35;4.50;3.50;1.00
65680;PMS5003;61747;54.966;73.394;2022-10-26T09:25:47;5.00;3.75;1.00
65680;PMS5003;61747;54.966;73.394;2022-10-26T09:28:16;4.00;3.25;1.25
65680;PMS5003;61747;54.966;73.394;2022-10-26T09:30:42;5.00;2.00;0.00
65680;PMS5003;61747;54.966;73.394;2022-10-26T09:33:19;5.00;2.00;0.00
65680;PMS5003;61747;54.966;73.394;2022-10-26T09:35:47;4.00;2.00;0.00
65680;PMS5003;61747;54.966;73.394;2022-10-26T09:43:37;6.00;5.00;2.00
65680;PMS5003;61747;54.966;73.394;2022-10-26T09:46:00;6.75;5.50;2.00
65680;PMS5003;61747;54.966;73.394;2022-10-26T09:48:35;8.00;5.50;2.00
65680;PMS5003;61747;54.966;73.394;2022-10-26T09:51:03;7.25;7.00;2.75
65680;PMS5003;61747;54.966;73.394;2022-10-26T09:53:39;11.00;7.00;2.25
65680;PMS5003;61747;54.966;73.394;2022-10-26T09:56:06;11.00;7.00;3.00
65680;PMS5003;61747;54.966;73.394;2022-10-26T09:58:52;11.75;8.00;3.00
65680;PMS5003;61747;54.966;73.394;2022-10-26T10:06:38;6.25;5.00;2.00
65680;PMS5003;61747;54.966;73.394;2022-10-26T10:09:11;9.50;7.75;3.00
65680;PMS5003;61747;54.966;73.394;2022-10-26T10:11:47;11.00;7.50;2.00
65680;PMS5003;61747;54.966;73.394;2022-10-26T10:14:22;8.75;5.25;3.50
65680;PMS5003;61747;54.966;73.394;2022-10-26T10:16:49;7.75;6.25;2.00
65680;PMS5003;61747;54.966;73.394;2022-10-26T10:19:26;7.50;5.00;2.00
65680;PMS5003;61747;54.966;73.394;2022-10-26T10:21:54;10.50;6.00;2.00
65680;PMS5003;61747;54.966;73.394;2022-10-26T10:24:21;13.25;8.00;2.00
65680;PMS5003;61747;54.966;73.394;2022-10-26T10:27:30;11.00;7.00;2.00
65680;PMS5003;61747;54.966;73.394;2022-10-26T10:29:40;9.00;7.00;2.00
65680;PMS5003;61747;54.966;73.394;2022-10-26T10:32:11;11.00;7.00;2.00
65680;PMS5003;61747;54.966;73.394;2022-10-26T10:34:44;9.00;5.75;2.00
65680;PMS5003;61747;54.966;73.394;2022-10-26T10:37:26;12.00;7.00;2.00
65680;PMS5003;61747;54.966;73.394;2022-10-26T10:40:00;10.00;5.25;2.75
65680;PMS5003;61747;54.966;73.394;2022-10-26T10:42:46;10.75;6.00;3.00
65680;PMS5003;61747;54.966;73.394;2022-10-26T10:45:23;9.25;6.00;2.00
65680;PMS5003;61747;54.966;73.394;2022-10-26T10:48:00;10.00;5.25;2.00
65680;PMS5003;61747;54.966;73.394;2022-10-26T10:50:26;12.00;8.00;2.50
65680;PMS5003;61747;54.966;73.394;2022-10-26T10:53:16;6.75;5.00;2.00
65680;PMS5003;61747;54.966;73.394;2022-10-26T10:56:00;5.00;4.00;2.00
65680;PMS5003;61747;54.966;73.394;2022-10-26T10:58:37;6.00;4.00;2.00
65680;PMS5003;61747;54.966;73.394;2022-10-26T11:01:09;6.75;5.00;2.50
65680;PMS5003;61747;54.966;73.394;2022-10-26T11:06:12;13.75;8.75;5.00
65680;PMS5003;61747;54.966;73.394;2022-10-26T11:11:12;20.25;15.00;8.00
65680;PMS5003;61747;54.966;73.394;2022-10-26T11:13:47;19.00;13.50;8.00
65680;PMS5003;61747;54.966;73.394;2022-10-26T11:16:15;18.00;15.25;7.50
65680;PMS5003;61747;54.966;73.394;2022-10-26T11:18:51;20.00;16.00;7.00
65680;PMS5003;61747;54.966;73.394;2022-10-26T11:26:35;16.75;13.00;6.75
65680;PMS5003;61747;54.966;73.394;2022-10-26T11:29:04;15.50;13.50;7.50
65680;PMS5003;61747;54.966;73.394;2022-10-26T11:31:40;18.50;15.50;7.00
65680;PMS5003;61747;54.966;73.394;2022-10-26T11:36:34;19.00;15.67;6.00
65680;PMS5003;61747;54.966;73.394;2022-10-26T11:39:05;18.25;16.00;5.00
65680;PMS5003;61747;54.966;73.394;2022-10-26T11:41:35;19.00;14.00;5.00
65680;PMS5003;61747;54.966;73.394;2022-10-26T11:44:10;17.25;14.50;5.00
65680;PMS5003;61747;54.966;73.394;2022-10-26T11:46:41;18.00;13.75;6.00
65680;PMS5003;61747;54.966;73.394;2022-10-26T11:54:57;24.00;18.00;11.00
65680;PMS5003;61747;54.966;73.394;2022-10-26T11:57:24;24.50;20.00;12.00
65680;PMS5003;61747;54.966;73.394;2022-10-26T11:59:54;23.50;20.00;13.00
65680;PMS5003;61747;54.966;73.394;2022-10-26T12:02:23;21.00;19.00;12.00
65680;PMS5003;61747;54.966;73.394;2022-10-26T12:05:35;19.50;16.25;9.00
65680;PMS5003;61747;54.966;73.394;2022-10-26T12:07:36;20.50;17.00;7.00
65680;PMS5003;61747;54.966;73.394;2022-10-26T12:10:04;18.00;15.00;6.00
65680;PMS5003;61747;54.966;73.394;2022-10-26T12:12:42;21.25;18.00;9.50
65680;PMS5003;61747;54.966;73.394;2022-10-26T12:15:15;21.75;18.50;10.25
65680;PMS5003;61747;54.966;73.394;2022-10-26T12:17:55;25.50;20.00;12.00
65680;PMS5003;61747;54.966;73.394;2022-10-26T12:23:19;26.00;22.00;14.00
65680;PMS5003;61747;54.966;73.394;2022-10-26T12:25:56;25.50;21.50;14.00
65680;PMS5003;61747;54.966;73.394;2022-10-26T12:28:48;25.50;21.00;14.00
65680;PMS5003;61747;54.966;73.394;2022-10-26T12:31:52;25.00;20.00;13.00
65680;PMS5003;61747;54.966;73.394;2022-10-26T12:34:22;24.75;20.00;12.75
65680;PMS5003;61747;54.966;73.394;2022-10-26T12:36:49;24.00;20.25;14.00
65680;PMS5003;61747;54.966;73.394;2022-10-26T12:39:29;25.00;22.25;14.00
65680;PMS5003;61747;54.966;73.394;2022-10-26T12:41:57;26.50;22.50;14.00
65680;PMS5003;61747;54.966;73.394;2022-10-26T12:44:34;30.50;22.50;14.00
65680;PMS5003;61747;54.966;73.394;2022-10-26T12:47:01;29.50;23.00;14.00
65680;PMS5003;61747;54.966;73.394;2022-10-26T12:52:19;23.25;20.00;12.00
65680;PMS5003;61747;54.966;73.394;2022-10-26T13:00:22;23.00;21.00;13.00
65680;PMS5003;61747;54.966;73.394;2022-10-26T13:02:53;25.00;22.50;14.00
65680;PMS5003;61747;54.966;73.394;2022-10-26T13:07:51;21.75;18.00;11.00
65680;PMS5003;61747;54.966;73.394;2022-10-26T13:10:24;19.00;17.00;10.00
65680;PMS5003;61747;54.966;73.394;2022-10-26T13:12:54;21.75;19.00;11.00
65680;PMS5003;61747;54.966;73.394;2022-10-26T13:17:57;24.25;20.50;12.50
65680;PMS5003;61747;54.966;73.394;2022-10-26T13:20:24;27.00;21.25;14.00
65680;PMS5003;61747;54.966;73.394;2022-10-26T13:23:01;25.00;21.25;13.00
65680;PMS5003;61747;54.966;73.394;2022-10-26T13:25:32;25.50;21.00;12.00
65680;PMS5003;61747;54.966;73.394;2022-10-26T13:28:03;26.00;22.75;14.00
65680;PMS5003;61747;54.966;73.394;2022-10-26T13:32:57;24.50;21.00;14.00
65680;PMS5003;61747;54.966;73.394;2022-10-26T13:35:24;26.00;20.00;13.00
65680;PMS5003;61747;54.966;73.394;2022-10-26T13:37:53;25.50;21.00;12.00
65680;PMS5003;61747;54.966;73.394;2022-10-26T13:40:26;25.50;21.00;12.00
65680;PMS5003;61747;54.966;73.394;2022-10-26T13:42:54;25.00;21.00;12.00
65680;PMS5003;61747;54.966;73.394;2022-10-26T13:45:24;23.25;18.00;12.00
65680;PMS5003;61747;54.966;73.394;2022-10-26T13:48:00;27.00;20.50;12.50
65680;PMS5003;61747;54.966;73.394;2022-10-26T13:50:30;24.25;21.00;13.00
65680;PMS5003;61747;54.966;73.394;2022-10-26T13:53:04;22.00;19.00;11.50
65680;PMS5003;61747;54.966;73.394;2022-10-26T13:55:52;24.00;19.75;11.00
65680;PMS5003;61747;54.966;73.394;2022-10-26T13:58:35;22.00;17.00;9.00
65680;PMS5003;61747;54.966;73.394;2022-10-26T14:03:38;22.00;19.25;9.50
65680;PMS5003;61747;54.966;73.394;2022-10-26T14:06:14;22.50;20.00;11.00
65680;PMS5003;61747;54.966;73.394;2022-10-26T14:08:41;24.50;19.00;10.00
65680;PMS5003;61747;54.966;73.394;2022-10-26T14:11:09;23.00;17.50;8.50
65680;PMS5003;61747;54.966;73.394;2022-10-26T14:13:37;19.50;17.00;7.50
65680;PMS5003;61747;54.966;73.394;2022-10-26T14:16:05;21.00;17.00;7.25
65680;PMS5003;61747;54.966;73.394;2022-10-26T14:18:31;20.75;16.00;7.00
65680;PMS5003;61747;54.966;73.394;2022-10-26T14:21:01;19.33;17.00;7.00
65680;PMS5003;61747;54.966;73.394;2022-10-26T14:23:32;19.25;15.00;6.00
65680;PMS5003;61747;54.966;73.394;2022-10-26T14:26:03;14.50;13.00;5.00
65680;PMS5003;61747;54.966;73.394;2022-10-26T14:28:30;15.75;13.75;7.00
65680;PMS5003;61747;54.966;73.394;2022-10-26T14:31:12;16.75;13.50;5.00
65680;PMS5003;61747;54.966;73.394;2022-10-26T14:33:38;15.00;13.00;5.00
65680;PMS5003;61747;54.966;73.394;2022-10-26T14:36:09;16.75;13.00;5.00
65680;PMS5003;61747;54.966;73.394;2022-10-26T14:38:37;15.00;13.00;6.00
65680;PMS5003;61747;54.966;73.394;2022-10-26T14:41:07;15.00;13.00;7.00
65680;PMS5003;61747;54.966;73.394;2022-10-26T14:43:32;17.00;14.50;6.50
65680;PMS5003;61747;54.966;73.394;2022-10-26T14:46:03;20.00;17.00;7.00
65680;PMS5003;61747;54.966;73.394;2022-10-26T14:48:30;21.50;16.00;8.00
65680;PMS5003;61747;54.966;73.394;2022-10-26T14:51:16;24.00;18.50;9.00
65680;PMS5003;61747;54.966;73.394;2022-10-26T14:53:48;23.25;18.25;9.50
65680;PMS5003;61747;54.966;73.394;2022-10-26T14:56:25;21.00;18.00;10.25
65680;PMS5003;61747;54.966;73.394;2022-10-26T14:58:53;22.25;17.00;9.00
65680;PMS5003;61747;54.966;73.394;2022-10-26T15:01:26;19.75;17.00;7.00
65680;PMS5003;61747;54.966;73.394;2022-10-26T15:04:03;20.50;14.75;7.00
65680;PMS5003;61747;54.966;73.394;2022-10-26T15:06:34;17.50;14.50;6.25
65680;PMS5003;61747;54.966;73.394;2022-10-26T15:09:19;17.00;14.00;5.00
65680;PMS5003;61747;54.966;73.394;2022-10-26T15:12:02;14.00;12.00;5.00
65680;PMS5003;61747;54.966;73.394;2022-10-26T15:14:29;13.75;12.25;5.00
65680;PMS5003;61747;54.966;73.394;2022-10-26T15:17:04;14.50;12.00;4.00
65680;PMS5003;61747;54.966;73.394;2022-10-26T15:19:30;13.00;12.00;5.00
65680;PMS5003;61747;54.966;73.394;2022-10-26T15:21:56;15.00;11.00;4.50
65680;PMS5003;61747;54.966;73.394;2022-10-26T15:24:25;17.00;12.00;6.00
65680;PMS5003;61747;54.966;73.394;2022-10-26T15:26:52;17.25;13.50;5.00
65680;PMS5003;61747;54.966;73.394;2022-10-26T15:32:20;18.75;14.50;6.50
65680;PMS5003;61747;54.966;73.394;2022-10-26T15:37:33;24.50;17.00;9.50
65680;PMS5003;61747;54.966;73.394;2022-10-26T15:39:59;23.00;18.00;10.00
65680;PMS5003;61747;54.966;73.394;2022-10-26T15:42:25;19.75;15.00;7.00
65680;PMS5003;61747;54.966;73.394;2022-10-26T15:45:01;22.00;17.00;7.50
65680;PMS5003;61747;54.966;73.394;2022-10-26T15:47:29;24.50;18.50;9.50
65680;PMS5003;61747;54.966;73.394;2022-10-26T15:50:02;21.00;18.00;10.00
65680;PMS5003;61747;54.966;73.394;2022-10-26T15:52:27;22.25;19.50;9.50
65680;PMS5003;61747;54.966;73.394;2022-10-26T15:54:53;27.00;21.00;12.00
65680;PMS5003;61747;54.966;73.394;2022-10-26T15:57:19;25.00;21.00;12.00
65680;PMS5003;61747;54.966;73.394;2022-10-26T15:59:44;24.00;21.00;12.67
65680;PMS5003;61747;54.966;73.394;2022-10-26T16:02:13;24.33;21.33;12.33
65680;PMS5003;61747;54.966;73.394;2022-10-26T16:04:39;26.25;22.00;12.00
65680;PMS5003;61747;54.966;73.394;2022-10-26T16:07:08;22.00;19.00;12.00
65680;PMS5003;61747;54.966;73.394;2022-10-26T16:09:36;23.00;19.25;12.00